createdAt,value
2023-02-17T00:02:24.193Z,100665.19
2023-02-17T00:04:54.328Z,100668.44
2023-02-17T00:07:22.763Z,100673.16
2023-02-17T00:09:51.302Z,100658.44
2023-02-17T00:12:19.754Z,100676.34
2023-02-17T00:14:48.140Z,100681.09
2023-02-17T00:17:16.584Z,100659.22
2023-02-17T00:19:45.205Z,100648.69
2023-02-17T00:22:15.108Z,100669.22
2023-02-17T00:24:43.619Z,100678.69
2023-02-17T00:27:12.178Z,100648.88
2023-02-17T00:29:40.673Z,100676.09
2023-02-17T00:32:10.586Z,100661.97
2023-02-17T00:34:39.246Z,100673.75
2023-02-17T00:37:08.778Z,100664.28
2023-02-17T00:39:38.635Z,100685.66
2023-02-17T00:42:07.387Z,100651.06
2023-02-17T00:44:35.979Z,100674.53
2023-02-17T00:47:04.664Z,100690.06
2023-02-17T00:49:33.221Z,100669.03
2023-02-17T00:52:02.055Z,100696.13
2023-02-17T00:54:30.836Z,100673.94
2023-02-17T00:57:00.774Z,100648.41
2023-02-17T00:59:29.521Z,100679.22
2023-02-17T01:01:58.132Z,100704.16
2023-02-17T01:04:26.573Z,100662.59
2023-02-17T01:06:55.021Z,100659.84
2023-02-17T01:09:25.153Z,100651.19
2023-02-17T01:11:53.625Z,100676.44
2023-02-17T01:14:23.745Z,100667.25
2023-02-17T01:16:52.642Z,100665.44
2023-02-17T01:19:22.805Z,100676.53
2023-02-17T01:21:51.453Z,100693.81
2023-02-17T01:24:19.953Z,100669.97
2023-02-17T01:26:48.460Z,100635.84
2023-02-17T01:29:16.939Z,100631.50
2023-02-17T01:31:47.272Z,100646.25
2023-02-17T01:34:15.696Z,100676.53
2023-02-17T01:36:44.201Z,100668.16
2023-02-17T01:39:15.048Z,100636.97
2023-02-17T01:41:43.632Z,100685.72
2023-02-17T01:44:16.837Z,100657.31
2023-02-17T01:46:47.486Z,100685.72
2023-02-17T01:49:26.869Z,100636.41
2023-02-17T01:51:59.569Z,100665.25
2023-02-17T01:54:30.611Z,100648.69
2023-02-17T01:56:59.302Z,100653.66
2023-02-17T01:59:27.933Z,100645.88
2023-02-17T02:02:00.275Z,100639.13
2023-02-17T02:04:31.906Z,100640.72
2023-02-17T02:07:00.845Z,100616.44
2023-02-17T02:09:32.772Z,100614.09
2023-02-17T02:12:01.555Z,100654.06
2023-02-17T02:14:33.876Z,100620.97
2023-02-17T02:17:08.318Z,100643.75
2023-02-17T02:20:05.611Z,100643.91
2023-02-17T02:23:06.327Z,100633.91
2023-02-17T02:25:55.592Z,100632.53
2023-02-17T02:28:30.507Z,100629.19
2023-02-17T02:31:12.742Z,100636.78
2023-02-17T02:33:44.240Z,100609.88
2023-02-17T02:36:15.161Z,100624.66
2023-02-17T02:38:48.205Z,100623.59
2023-02-17T02:41:19.134Z,100621.31
2023-02-17T02:43:49.130Z,100621.75
2023-02-17T02:46:17.510Z,100613.16
2023-02-17T02:48:47.637Z,100600.09
2023-02-17T02:51:39.592Z,100590.91
2023-02-17T02:54:21.197Z,100582.34
2023-02-17T02:57:06.823Z,100584.28
2023-02-17T02:59:45.891Z,100586.50
2023-02-17T03:02:19.679Z,100585.59
2023-02-17T03:04:53.535Z,100595.84
2023-02-17T03:07:25.706Z,100603.41
2023-02-17T03:09:55.532Z,100579.34
2023-02-17T03:12:24.312Z,100571.34
2023-02-17T03:14:55.838Z,100581.97
2023-02-17T03:17:24.484Z,100580.59
2023-02-17T03:19:54.468Z,100595.09
2023-02-17T03:22:26.154Z,100561.72
2023-02-17T03:24:54.610Z,100601.72
2023-02-17T03:27:23.162Z,100577.19
2023-02-17T03:29:51.768Z,100580.53
2023-02-17T03:32:21.354Z,100554.44
2023-02-17T03:34:49.986Z,100588.84
2023-02-17T03:37:19.871Z,100548.50
2023-02-17T03:39:50.761Z,100580.41
2023-02-17T03:42:19.192Z,100565.16
2023-02-17T03:44:47.740Z,100570.56
2023-02-17T03:47:16.269Z,100592.97
2023-02-17T03:49:44.723Z,100557.91
2023-02-17T03:52:13.120Z,100579.09
2023-02-17T03:54:43.053Z,100573.94
2023-02-17T03:57:11.776Z,100576.44
2023-02-17T03:59:40.308Z,100570.47
2023-02-17T04:02:08.864Z,100564.78
2023-02-17T04:04:37.808Z,100592.31
2023-02-17T04:07:06.543Z,100560.75
2023-02-17T04:09:35.231Z,100588.97
2023-02-17T04:12:05.923Z,100574.41
2023-02-17T04:14:34.552Z,100580.31
2023-02-17T04:17:02.928Z,100605.69
2023-02-17T04:19:31.441Z,100594.97
2023-02-17T04:21:59.880Z,100573.25
2023-02-17T04:24:28.519Z,100576.63
2023-02-17T04:26:56.986Z,100547.47
2023-02-17T04:29:26.948Z,100565.31
2023-02-17T04:31:55.468Z,100595.41
2023-02-17T04:34:24.058Z,100596.25
2023-02-17T04:36:52.731Z,100588.91
2023-02-17T04:39:21.047Z,100623.13
2023-02-17T04:41:49.823Z,100592.22
2023-02-17T04:44:18.429Z,100622.53
2023-02-17T04:46:48.400Z,100680.19
2023-02-17T04:49:16.738Z,100586.84
2023-02-17T04:51:45.200Z,100581.63
2023-02-17T04:54:13.728Z,100555.91
2023-02-17T04:56:42.161Z,100575.53
2023-02-17T04:59:10.614Z,100605.34
2023-02-17T05:01:39.163Z,100555.00
2023-02-17T05:04:09.058Z,100625.63
2023-02-17T05:06:37.702Z,100606.69
2023-02-17T05:09:06.216Z,100595.41
2023-02-17T05:11:34.852Z,100584.75
2023-02-17T05:14:03.433Z,100644.28
2023-02-17T05:16:31.805Z,100616.47
2023-02-17T05:19:00.137Z,100602.22
2023-02-17T05:21:29.984Z,100542.28
2023-02-17T05:23:58.381Z,100611.00
2023-02-17T05:26:26.726Z,100588.81
2023-02-17T05:28:55.058Z,100603.16
2023-02-17T05:31:23.505Z,100624.53
2023-02-17T05:33:52.587Z,100641.75
2023-02-17T05:36:21.777Z,100599.25
2023-02-17T05:38:52.058Z,100598.31
2023-02-17T05:41:20.736Z,100603.16
2023-02-17T05:43:49.325Z,100625.50
2023-02-17T05:46:17.901Z,100567.41
2023-02-17T05:48:46.748Z,100608.31
2023-02-17T05:51:17.329Z,100575.09
2023-02-17T05:53:45.860Z,100598.25
2023-02-17T05:56:15.898Z,100582.22
2023-02-17T05:58:44.336Z,100633.66
2023-02-17T06:01:13.202Z,100618.06
2023-02-17T06:03:41.641Z,100618.06
2023-02-17T06:06:09.966Z,100549.13
2023-02-17T06:08:38.810Z,100652.53
2023-02-17T06:11:07.712Z,100637.03
2023-02-17T06:13:37.696Z,100614.84
2023-02-17T06:16:07.371Z,100627.06
2023-02-17T06:18:35.881Z,100636.25
2023-02-17T06:21:04.460Z,100625.97
2023-02-17T06:23:35.982Z,100604.03
2023-02-17T06:26:05.702Z,100650.19
2023-02-17T06:28:47.433Z,100620.19
2023-02-17T06:31:19.070Z,100593.00
2023-02-17T06:33:48.564Z,100551.03
2023-02-17T06:36:17.139Z,100634.97
2023-02-17T06:38:53.610Z,100585.38
2023-02-17T06:41:33.179Z,100620.19
2023-02-17T06:44:03.296Z,100608.38
2023-02-17T06:46:31.710Z,100613.31
2023-02-17T06:49:01.580Z,100606.34
2023-02-17T06:51:30.159Z,100532.00
2023-02-17T06:53:58.551Z,100598.25
2023-02-17T06:56:27.255Z,100655.59
2023-02-17T06:58:55.530Z,100656.56
2023-02-17T07:01:26.939Z,100671.97
2023-02-17T07:04:01.751Z,100641.97
2023-02-17T07:06:30.179Z,100620.53
2023-02-17T07:08:58.585Z,100621.16
2023-02-17T07:11:31.482Z,100607.41
2023-02-17T07:14:00.631Z,100637.06
2023-02-17T07:16:30.884Z,100668.34
2023-02-17T07:18:59.325Z,100661.59
2023-02-17T07:21:27.951Z,100652.91
2023-02-17T07:23:56.538Z,100661.16
2023-02-17T07:26:24.970Z,100669.44
2023-02-17T07:28:53.232Z,100655.31
2023-02-17T07:31:21.595Z,100684.66
2023-02-17T07:33:51.273Z,100676.34
2023-02-17T07:36:19.566Z,100669.91
2023-02-17T07:38:47.874Z,100712.91
2023-02-17T07:41:17.725Z,100699.13
2023-02-17T07:43:46.405Z,100666.44
2023-02-17T07:46:17.677Z,100701.16
2023-02-17T07:48:46.451Z,100688.41
2023-02-17T07:51:17.352Z,100677.16
2023-02-17T07:53:45.930Z,100674.84
2023-02-17T07:56:15.902Z,100672.09
2023-02-17T07:58:44.911Z,100642.69
2023-02-17T08:01:15.358Z,100678.63
2023-02-17T08:03:49.224Z,100687.31
2023-02-17T08:06:23.839Z,100688.13
2023-02-17T08:09:10.830Z,100644.69
2023-02-17T08:12:11.502Z,100686.44
2023-02-17T08:14:46.312Z,100690.75
2023-02-17T08:17:16.012Z,100721.81
2023-02-17T08:19:49.085Z,100657.22
2023-02-17T08:22:36.141Z,100689.13
2023-02-17T08:25:08.010Z,100699.44
2023-02-17T08:27:37.762Z,100659.72
2023-02-17T08:30:18.054Z,100714.13
2023-02-17T08:32:51.434Z,100696.03
2023-02-17T08:35:23.102Z,100703.81
2023-02-17T08:37:55.145Z,100707.00
2023-02-17T08:40:24.736Z,100681.00
2023-02-17T08:42:54.444Z,100706.78
2023-02-17T08:45:24.596Z,100652.09
2023-02-17T08:48:00.535Z,100647.28
2023-02-17T08:50:31.836Z,100671.28
2023-02-17T08:53:04.859Z,100632.72
2023-02-17T08:55:48.504Z,100759.88
2023-02-17T08:58:18.902Z,100668.81
2023-02-17T09:01:03.077Z,100682.09
2023-02-17T09:03:33.171Z,100699.59
2023-02-17T09:06:03.222Z,100721.09
2023-02-17T09:08:36.517Z,100678.69
2023-02-17T09:13:52.165Z,100660.81
2023-02-17T09:19:06.832Z,100673.03
2023-02-17T09:21:35.620Z,100700.88
2023-02-17T09:24:06.639Z,100669.84
2023-02-17T09:26:35.944Z,100743.41
2023-02-17T09:29:05.192Z,100742.41
2023-02-17T09:31:34.633Z,100712.28
2023-02-17T09:34:03.255Z,100662.78
2023-02-17T09:36:34.013Z,100683.69
2023-02-17T09:39:02.509Z,100672.19
2023-02-17T09:41:39.425Z,100670.81
2023-02-17T09:44:08.743Z,100661.91
2023-02-17T09:46:38.686Z,100650.06
2023-02-17T09:49:11.699Z,100694.41
2023-02-17T09:51:44.225Z,100639.59
2023-02-17T09:54:17.150Z,100684.56
2023-02-17T09:56:50.633Z,100674.34
2023-02-17T09:59:23.148Z,100639.38
2023-02-17T10:01:51.822Z,100635.44
2023-02-17T10:04:23.186Z,100635.41
2023-02-17T10:06:53.281Z,100698.06
2023-02-17T10:09:25.304Z,100703.25
2023-02-17T10:12:00.683Z,100670.28
2023-02-17T10:14:31.140Z,100696.56
2023-02-17T10:17:07.088Z,100704.81
2023-02-17T10:19:39.851Z,100690.09
2023-02-17T10:22:12.740Z,100736.22
2023-02-17T10:24:44.464Z,100692.13
2023-02-17T10:27:25.949Z,100677.97
2023-02-17T10:30:05.631Z,100724.16
2023-02-17T10:32:37.520Z,100765.66
2023-02-17T10:35:15.201Z,100704.53
2023-02-17T10:37:48.448Z,100716.25
2023-02-17T10:40:23.098Z,100726.59
2023-02-17T10:42:56.950Z,100710.44
2023-02-17T10:45:30.660Z,100717.06
2023-02-17T10:48:03.466Z,100709.41
2023-02-17T10:50:32.074Z,100706.63
2023-02-17T10:53:00.540Z,100693.78
2023-02-17T10:55:35.803Z,100694.53
2023-02-17T10:58:12.381Z,100706.06
2023-02-17T11:00:42.530Z,100691.19
2023-02-17T11:03:20.903Z,100683.72
2023-02-17T11:05:56.267Z,100660.75
2023-02-17T11:08:35.488Z,100685.47
2023-02-17T11:11:17.214Z,100698.75
2023-02-17T11:14:03.776Z,100665.72
2023-02-17T11:16:37.380Z,100679.84
2023-02-17T11:19:07.080Z,100671.94
2023-02-17T11:21:44.360Z,100701.75
2023-02-17T11:24:16.490Z,100689.50
2023-02-17T11:26:46.026Z,100670.94
2023-02-17T11:29:20.949Z,100660.03
2023-02-17T11:31:57.123Z,100714.56
2023-02-17T11:34:28.472Z,100660.69
2023-02-17T11:37:03.201Z,100678.00
2023-02-17T11:39:39.274Z,100682.25
2023-02-17T11:42:17.059Z,100675.31
2023-02-17T11:44:46.723Z,100680.31
2023-02-17T11:47:18.272Z,100674.16
2023-02-17T11:50:05.068Z,100680.88
2023-02-17T11:52:47.953Z,100668.75
2023-02-17T11:55:20.700Z,100663.69
2023-02-17T11:58:01.299Z,100666.94
2023-02-17T12:00:35.917Z,100668.50
2023-02-17T12:03:36.924Z,100675.22
2023-02-17T12:06:10.844Z,100674.28
2023-02-17T12:08:48.540Z,100667.16
2023-02-17T12:11:21.201Z,100666.22
2023-02-17T12:13:57.077Z,100672.97
2023-02-17T12:16:36.465Z,100670.25
2023-02-17T12:19:25.186Z,100666.75
2023-02-17T12:22:00.167Z,100677.03
2023-02-17T12:24:51.102Z,100674.44
2023-02-17T12:27:30.540Z,100667.59
2023-02-17T12:30:14.906Z,100662.38
2023-02-17T12:33:02.285Z,100671.75
2023-02-17T12:35:35.472Z,100673.31
2023-02-17T12:38:11.791Z,100670.72
2023-02-17T12:40:40.952Z,100670.72
2023-02-17T12:43:19.681Z,100664.63
2023-02-17T12:45:49.835Z,100665.41
2023-02-17T12:48:26.012Z,100663.78
2023-02-17T12:50:57.752Z,100656.78
2023-02-17T12:53:37.039Z,100672.34
2023-02-17T12:56:21.112Z,100659.38
2023-02-17T12:58:49.264Z,100657.50
2023-02-17T13:01:19.699Z,100652.06
2023-02-17T13:03:49.636Z,100651.81
2023-02-17T13:06:22.800Z,100646.38
2023-02-17T13:08:54.414Z,100642.84
2023-02-17T13:11:28.414Z,100630.66
2023-02-17T13:13:56.606Z,100643.38
2023-02-17T13:16:24.878Z,100638.97
2023-02-17T13:18:54.507Z,100627.63
2023-02-17T13:21:29.628Z,100622.28
2023-02-17T13:24:02.514Z,100614.44
2023-02-17T13:26:32.417Z,100616.91
2023-02-17T13:29:33.297Z,100606.47
2023-02-17T13:32:03.223Z,100611.59
2023-02-17T13:34:35.337Z,100600.25
2023-02-17T13:37:16.747Z,100614.81
2023-02-17T13:39:45.071Z,100608.59
2023-02-17T13:42:37.992Z,100604.94
2023-02-17T13:45:19.397Z,100602.84
2023-02-17T13:47:47.977Z,100609.72
2023-02-17T13:50:33.550Z,100608.00
2023-02-17T13:53:02.048Z,100618.53
2023-02-17T13:55:30.512Z,100620.34
2023-02-17T13:57:59.892Z,100605.06
2023-02-17T14:00:29.792Z,100613.41
2023-02-17T14:02:59.526Z,100626.44
2023-02-17T14:05:37.807Z,100625.81
2023-02-17T14:08:08.202Z,100625.19
2023-02-17T14:10:36.908Z,100638.22
2023-02-17T14:13:05.159Z,100624.56
2023-02-17T14:15:33.711Z,100616.00
2023-02-17T14:18:02.133Z,100623.06
2023-02-17T14:20:34.893Z,100610.31
2023-02-17T14:23:05.724Z,100617.50
2023-02-17T14:25:36.623Z,100625.63
2023-02-17T14:28:05.700Z,100611.13
2023-02-17T14:30:37.030Z,100610.44
2023-02-17T14:33:09.194Z,100607.88
2023-02-17T14:35:39.386Z,100602.75
2023-02-17T14:38:20.775Z,100595.97
2023-02-17T14:40:49.098Z,100598.56
2023-02-17T14:43:17.219Z,100588.06
2023-02-17T14:45:45.492Z,100603.59
2023-02-17T14:48:13.605Z,100605.28
2023-02-17T14:50:44.229Z,100600.03
2023-02-17T14:53:22.166Z,100604.22
2023-02-17T14:55:53.497Z,100593.97
2023-02-17T14:58:23.295Z,100589.59
2023-02-17T15:00:51.816Z,100601.63
2023-02-17T15:03:20.334Z,100617.91
2023-02-17T15:05:50.040Z,100599.72
2023-02-17T15:08:19.816Z,100584.44
2023-02-17T15:10:48.208Z,100572.34
2023-02-17T15:13:18.784Z,100587.78
2023-02-17T15:15:47.860Z,100573.09
2023-02-17T15:18:17.496Z,100586.94
2023-02-17T15:20:47.555Z,100570.69
2023-02-17T15:23:18.131Z,100589.59
2023-02-17T15:25:46.492Z,100589.72
2023-02-17T15:28:15.129Z,100578.53
2023-02-17T15:30:43.458Z,100596.84
2023-02-17T15:33:12.955Z,100603.94
2023-02-17T15:35:41.443Z,100611.78
2023-02-17T15:38:12.417Z,100617.00
2023-02-17T15:40:41.962Z,100600.78
2023-02-17T15:43:11.905Z,100604.25
2023-02-17T15:45:40.150Z,100612.22
2023-02-17T15:48:12.677Z,100620.13
2023-02-17T15:50:40.929Z,100614.88
2023-02-17T15:53:09.067Z,100618.50
2023-02-17T15:55:37.290Z,100616.97
2023-02-17T15:58:06.793Z,100620.66
2023-02-17T16:00:36.157Z,100612.13
2023-02-17T16:03:04.750Z,100613.16
2023-02-17T16:05:33.560Z,100624.41
2023-02-17T16:08:01.729Z,100622.75
2023-02-17T16:10:29.906Z,100609.78
2023-02-17T16:12:59.154Z,100621.91
2023-02-17T16:15:29.707Z,100612.28
2023-02-17T16:17:58.757Z,100606.38
2023-02-17T16:20:28.371Z,100601.19
2023-02-17T16:22:56.550Z,100618.44
2023-02-17T16:25:24.983Z,100621.81
2023-02-17T16:27:53.736Z,100634.75
2023-02-17T16:30:24.690Z,100624.41
2023-02-17T16:32:54.270Z,100640.78
2023-02-17T16:35:24.353Z,100639.94
2023-02-17T16:37:54.994Z,100623.56
2023-02-17T16:40:24.428Z,100633.88
2023-02-17T16:42:52.631Z,100642.63
2023-02-17T16:45:22.449Z,100663.25
2023-02-17T16:47:53.517Z,100654.66
2023-02-17T16:50:25.492Z,100646.16
2023-02-17T16:52:54.586Z,100646.16
2023-02-17T16:55:23.974Z,100651.47
2023-02-17T16:57:52.206Z,100657.44
2023-02-17T17:00:22.573Z,100657.44
2023-02-17T17:02:51.269Z,100670.19
2023-02-17T17:05:20.912Z,100671.09
2023-02-17T17:07:49.051Z,100672.81
2023-02-17T17:10:20.785Z,100671.94
2023-02-17T17:12:48.973Z,100676.16
2023-02-17T17:15:17.457Z,100687.38
2023-02-17T17:17:47.482Z,100690.06
2023-02-17T17:20:27.832Z,100681.50
2023-02-17T17:22:56.045Z,100690.16
2023-02-17T17:25:24.151Z,100697.06
2023-02-17T17:27:52.354Z,100695.28
2023-02-17T17:30:22.259Z,100699.69
2023-02-17T17:32:50.381Z,100694.50
2023-02-17T17:35:18.715Z,100714.38
2023-02-17T17:37:48.442Z,100710.00
2023-02-17T17:40:18.996Z,100706.56
2023-02-17T17:42:47.206Z,100711.66
2023-02-17T17:45:15.898Z,100707.97
2023-02-17T17:47:44.064Z,100693.78
2023-02-17T17:50:17.145Z,100706.25
2023-02-17T17:52:45.403Z,100708.03
2023-02-17T17:55:15.226Z,100700.34
2023-02-17T17:57:43.360Z,100704.84
2023-02-17T18:00:14.061Z,100690.19
2023-02-17T18:02:44.944Z,100696.28
2023-02-17T18:05:13.316Z,100684.09
2023-02-17T18:07:42.410Z,100689.34
2023-02-17T18:10:11.615Z,100682.59
2023-02-17T18:12:41.559Z,100689.41
2023-02-17T18:15:10.631Z,100694.66
2023-02-17T18:17:40.215Z,100702.53
2023-02-17T18:20:10.697Z,100701.66
2023-02-17T18:22:39.145Z,100703.44
2023-02-17T18:25:07.587Z,100715.50
2023-02-17T18:27:41.602Z,100721.44
2023-02-17T18:30:10.826Z,100718.03
2023-02-17T18:32:39.013Z,100719.69
2023-02-17T18:35:07.898Z,100724.00
2023-02-17T18:37:36.222Z,100725.84
2023-02-17T18:40:04.904Z,100718.13
2023-02-17T18:42:34.000Z,100721.75
2023-02-17T18:45:03.524Z,100732.09
2023-02-17T18:47:31.708Z,100735.56
2023-02-17T18:50:00.114Z,100734.69
2023-02-17T18:52:28.256Z,100735.56
2023-02-17T18:54:56.373Z,100730.47
2023-02-17T18:57:24.484Z,100734.75
2023-02-17T18:59:52.663Z,100741.63
2023-02-17T19:02:22.841Z,100740.75
2023-02-17T19:04:53.565Z,100746.66
2023-02-17T19:07:21.725Z,100747.41
2023-02-17T19:09:51.576Z,100744.75
2023-02-17T19:12:19.746Z,100750.78
2023-02-17T19:14:48.444Z,100751.75
2023-02-17T19:17:19.484Z,100755.22
2023-02-17T19:19:49.012Z,100756.09
2023-02-17T19:22:17.161Z,100751.84
2023-02-17T19:24:45.324Z,100762.16
2023-02-17T19:27:13.979Z,100765.59
2023-02-17T19:29:42.136Z,100764.78
2023-02-17T19:32:10.363Z,100761.41
2023-02-17T19:34:39.131Z,100760.63
2023-02-17T19:37:08.681Z,100753.78
2023-02-17T19:39:36.999Z,100762.50
2023-02-17T19:42:05.236Z,100753.00
2023-02-17T19:44:33.542Z,100765.03
2023-02-17T19:47:01.719Z,100765.03
2023-02-17T19:49:29.885Z,100776.16
2023-02-17T19:51:58.103Z,100778.75
2023-02-17T19:54:27.669Z,100764.97
2023-02-17T19:56:55.782Z,100777.09
2023-02-17T19:59:24.056Z,100777.09
2023-02-17T20:01:53.034Z,100766.66
2023-02-17T20:04:21.279Z,100772.75
2023-02-17T20:06:49.428Z,100775.34
2023-02-17T20:09:19.136Z,100770.16
2023-02-17T20:11:49.054Z,100779.59
2023-02-17T20:14:17.241Z,100777.00
2023-02-17T20:16:45.501Z,100771.78
2023-02-17T20:19:13.605Z,100770.16
2023-02-17T20:21:44.669Z,100770.09
2023-02-17T20:24:14.098Z,100772.63
2023-02-17T20:26:44.733Z,100770.03
2023-02-17T20:29:14.595Z,100770.03
2023-02-17T20:31:42.996Z,100765.69
2023-02-17T20:34:27.151Z,100777.75
2023-02-17T20:36:55.432Z,100784.59
2023-02-17T20:39:23.724Z,100775.94
2023-02-17T20:41:51.960Z,100787.16
2023-02-17T20:44:21.647Z,100772.47
2023-02-17T20:46:50.345Z,100777.66
2023-02-17T20:49:20.417Z,100784.53
2023-02-17T20:51:48.837Z,100777.59
2023-02-17T20:54:16.999Z,100785.19
2023-02-17T20:56:46.663Z,100784.25
2023-02-17T20:59:15.553Z,100779.09
2023-02-17T21:01:47.144Z,100779.94
2023-02-17T21:04:15.551Z,100779.09
2023-02-17T21:06:45.726Z,100792.03
2023-02-17T21:09:15.538Z,100792.97
2023-02-17T21:11:43.762Z,100791.19
2023-02-17T21:14:12.015Z,100785.97
2023-02-17T21:16:40.204Z,100785.97
2023-02-17T21:19:09.820Z,100787.78
2023-02-17T21:21:38.761Z,100785.22
2023-02-17T21:24:07.555Z,100792.97
2023-02-17T21:26:35.897Z,100789.44
2023-02-17T21:29:04.202Z,100785.19
2023-02-17T21:31:32.462Z,100784.34
2023-02-17T21:34:00.757Z,100787.78
2023-02-17T21:36:30.504Z,100793.78
2023-02-17T21:38:59.074Z,100787.72
2023-02-17T21:41:28.918Z,100784.16
2023-02-17T21:44:14.988Z,100783.16
2023-02-17T21:46:44.129Z,100782.28
2023-02-17T21:49:12.500Z,100781.34
2023-02-17T21:51:42.032Z,100780.41
2023-02-17T21:54:10.388Z,100792.50
2023-02-17T21:56:39.121Z,100792.59
2023-02-17T21:59:07.292Z,100782.22
2023-02-17T22:01:35.470Z,100787.41
2023-02-17T22:04:03.649Z,100789.16
2023-02-17T22:06:33.331Z,100779.63
2023-02-17T22:09:03.048Z,100787.41
2023-02-17T22:11:33.067Z,100789.09
2023-02-17T22:14:02.557Z,100792.50
2023-02-17T22:16:30.954Z,100783.78
2023-02-17T22:18:59.150Z,100788.16
2023-02-17T22:21:27.234Z,100782.03
2023-02-17T22:23:55.600Z,100787.22
2023-02-17T22:26:25.655Z,100783.84
2023-02-17T22:28:54.304Z,100784.75
2023-02-17T22:31:23.806Z,100780.41
2023-02-17T22:33:52.146Z,100778.84
2023-02-17T22:36:22.104Z,100782.19
2023-02-17T22:38:50.352Z,100777.78
2023-02-17T22:41:20.582Z,100771.63
2023-02-17T22:43:50.343Z,100777.59
2023-02-17T22:46:19.340Z,100773.28
2023-02-17T22:48:48.681Z,100776.66
2023-02-17T22:51:18.189Z,100775.78
2023-02-17T22:53:46.357Z,100775.00
2023-02-17T22:56:14.686Z,100778.38
2023-02-17T22:58:42.924Z,100781.03
2023-02-17T23:01:13.828Z,100784.63
2023-02-17T23:03:42.160Z,100780.19
2023-02-17T23:06:13.038Z,100787.03
2023-02-17T23:08:41.533Z,100785.38
2023-02-17T23:11:10.786Z,100776.81
2023-02-17T23:13:39.217Z,100768.19
2023-02-17T23:16:08.403Z,100776.81
2023-02-17T23:18:38.207Z,100761.25
2023-02-17T23:21:10.171Z,100771.81
2023-02-17T23:23:38.296Z,100765.84
2023-02-17T23:26:06.866Z,100770.91
2023-02-17T23:28:35.377Z,100773.47
2023-02-17T23:31:03.680Z,100777.97
2023-02-17T23:33:31.903Z,100768.47
2023-02-17T23:36:01.350Z,100772.88
2023-02-17T23:38:29.432Z,100773.81
2023-02-17T23:40:57.549Z,100780.66
2023-02-17T23:43:25.841Z,100782.38
2023-02-17T23:45:56.820Z,100765.97
2023-02-17T23:48:25.052Z,100768.63
2023-02-17T23:50:57.306Z,100772.09
2023-02-17T23:53:26.997Z,100772.09
2023-02-17T23:56:03.401Z,100778.84
2023-02-17T23:58:31.679Z,100767.69
